Time;durP1;ratioP1;P1;durP2;ratioP2;P2;SDS_P1;SDS_P2;PMS_P1;PMS_P2;Temp;Humidity;BMP_temperature;BMP_pressure;BME280_temperature;BME280_humidity;BME280_pressure;Samples;Min_cycle;Max_cycle;Signal;HPM_P1;HPM_P2
2021/10/11 00:00:41;;;;;;;;;;;18.10;57.60;;;;;;4998484;28;19918;-54
2021/10/11 00:03:06;;;;;;;;;;;18.10;57.60;;;;;;5011314;28;19917;-56
2021/10/11 00:05:32;;;;;;;;;;;18.20;57.60;;;;;;5009125;28;20015;-58
2021/10/11 00:07:57;;;;;;;;;;;18.10;57.50;;;;;;5004477;28;19928;-56
2021/10/11 00:10:24;;;;;;;;;;;18.20;57.60;;;;;;4992540;28;19921;-56
2021/10/11 00:12:50;;;;;;;;;;;18.10;57.50;;;;;;5004999;28;19957;-53
2021/10/11 00:15:15;;;;;;;;;;;18.10;57.50;;;;;;4974396;28;19925;-56
2021/10/11 00:17:41;;;;;;;;;;;18.10;57.40;;;;;;5011115;28;19917;-56
2021/10/11 00:20:07;;;;;;;;;;;18.20;57.40;;;;;;4986840;28;19996;-58
2021/10/11 00:22:32;;;;;;;;;;;18.20;57.40;;;;;;5004376;28;19917;-56
2021/10/11 00:24:58;;;;;;;;;;;18.10;57.40;;;;;;5006572;28;19929;-58
2021/10/11 00:27:23;;;;;;;;;;;18.10;57.40;;;;;;5000976;28;19924;-55
2021/10/11 00:29:48;;;;;;;;;;;18.10;57.40;;;;;;5008142;28;19929;-59
2021/10/11 00:32:14;;;;;;;;;;;18.10;57.40;;;;;;5014749;28;20333;-58
2021/10/11 00:34:39;;;;;;;;;;;18.10;57.30;;;;;;4997121;28;19917;-55
2021/10/11 00:37:05;;;;;;;;;;;18.10;57.30;;;;;;5004113;28;19960;-56
2021/10/11 00:39:30;;;;;;;;;;;18.10;57.20;;;;;;4984142;28;19921;-56
2021/10/11 00:41:56;;;;;;;;;;;18.20;57.40;;;;;;4988861;28;19986;-53
2021/10/11 00:44:21;;;;;;;;;;;18.10;57.30;;;;;;4991079;28;19980;-57
2021/10/11 00:46:47;;;;;;;;;;;18.10;57.20;;;;;;5015874;28;19925;-58
2021/10/11 00:49:12;;;;;;;;;;;18.10;57.30;;;;;;5004423;28;19918;-57
2021/10/11 00:51:38;;;;;;;;;;;18.10;57.20;;;;;;5008690;28;19925;-55
2021/10/11 00:54:04;;;;;;;;;;;18.10;57.20;;;;;;5010486;28;19952;-54
2021/10/11 00:56:29;;;;;;;;;;;18.10;57.20;;;;;;5006754;28;19921;-58
2021/10/11 00:58:54;;;;;;;;;;;18.10;57.20;;;;;;4981548;28;19922;-57
2021/10/11 01:01:20;;;;;;;;;;;18.10;57.20;;;;;;5007369;28;19974;-56
2021/10/11 01:03:45;;;;;;;;;;;18.10;57.20;;;;;;4995154;28;20417;-53
2021/10/11 01:06:11;;;;;;;;;;;18.10;57.20;;;;;;5013932;28;19980;-58
2021/10/11 01:08:36;;;;;;;;;;;18.10;57.20;;;;;;4995599;28;19928;-55
2021/10/11 01:11:02;;;;;;;;;;;18.10;57.20;;;;;;5008386;28;19924;-54
2021/10/11 01:13:27;;;;;;;;;;;18.10;57.30;;;;;;5005237;28;20334;-58
2021/10/11 01:15:53;;;;;;;;;;;18.10;57.10;;;;;;5011357;28;19960;-55
2021/10/11 01:18:18;;;;;;;;;;;18.10;57.10;;;;;;5007707;28;19921;-56
2021/10/11 01:20:44;;;;;;;;;;;18.10;57.10;;;;;;4998583;28;20021;-58
2021/10/11 01:23:09;;;;;;;;;;;18.10;57.10;;;;;;5008247;28;19918;-56
2021/10/11 01:25:34;;;;;;;;;;;18.10;57.10;;;;;;4988162;28;19933;-55
2021/10/11 01:28:00;;;;;;;;;;;18.10;57.10;;;;;;5009809;28;19918;-59
2021/10/11 01:30:26;;;;;;;;;;;18.10;57.10;;;;;;4991343;28;19917;-58
2021/10/11 01:32:51;;;;;;;;;;;18.10;57.10;;;;;;5017193;28;19925;-56
2021/10/11 01:35:16;;;;;;;;;;;18.10;57.00;;;;;;5007463;28;19917;-58
2021/10/11 01:37:42;;;;;;;;;;;18.10;57.00;;;;;;5008904;28;19940;-54
2021/10/11 01:40:08;;;;;;;;;;;18.10;57.00;;;;;;4994948;28;20008;-52
2021/10/11 01:42:33;;;;;;;;;;;18.10;57.00;;;;;;4990732;28;19918;-54
2021/10/11 01:44:59;;;;;;;;;;;18.10;57.00;;;;;;5014076;28;19928;-58
2021/10/11 01:47:24;;;;;;;;;;;18.10;57.00;;;;;;5010894;28;19921;-55
2021/10/11 01:49:50;;;;;;;;;;;18.10;57.00;;;;;;5003540;28;19917;-58
2021/10/11 01:52:15;;;;;;;;;;;18.10;56.90;;;;;;5009397;28;19924;-60
2021/10/11 01:54:41;;;;;;;;;;;18.10;57.00;;;;;;5011258;28;20725;-56
2021/10/11 01:57:06;;;;;;;;;;;18.10;56.90;;;;;;5014221;28;20067;-57
2021/10/11 01:59:31;;;;;;;;;;;18.10;56.80;;;;;;5006521;28;19917;-53
2021/10/11 02:01:57;;;;;;;;;;;18.10;56.90;;;;;;5003738;28;19949;-57
2021/10/11 02:04:23;;;;;;;;;;;18.10;56.90;;;;;;5003537;28;20410;-57
2021/10/11 02:06:48;;;;;;;;;;;18.10;56.90;;;;;;5008412;28;19918;-56
2021/10/11 02:09:14;;;;;;;;;;;18.10;56.80;;;;;;5006773;28;19949;-58
2021/10/11 02:11:39;;;;;;;;;;;18.10;56.80;;;;;;4999356;28;19922;-55
2021/10/11 02:14:05;;;;;;;;;;;18.10;56.80;;;;;;5006842;28;19929;-57
2021/10/11 02:16:30;;;;;;;;;;;18.10;56.80;;;;;;5014951;28;19924;-54
2021/10/11 02:18:55;;;;;;;;;;;18.10;56.80;;;;;;5007225;28;19994;-54
2021/10/11 02:21:21;;;;;;;;;;;18.10;56.80;;;;;;5013118;28;19918;-64
2021/10/11 02:23:47;;;;;;;;;;;18.10;56.80;;;;;;5007351;28;20286;-58
2021/10/11 02:26:12;;;;;;;;;;;18.10;56.80;;;;;;5015086;28;19929;-57
2021/10/11 02:28:39;;;;;;;;;;;18.10;56.80;;;;;;5007943;28;19922;-56
2021/10/11 02:31:04;;;;;;;;;;;18.10;56.80;;;;;;4992924;28;19933;-57
2021/10/11 02:33:30;;;;;;;;;;;18.10;56.70;;;;;;5002715;28;19925;-59
2021/10/11 02:35:55;;;;;;;;;;;18.10;56.70;;;;;;5002314;28;19917;-58
2021/10/11 02:38:21;;;;;;;;;;;18.10;56.70;;;;;;5005410;28;19925;-53
2021/10/11 02:40:46;;;;;;;;;;;18.10;56.70;;;;;;5017130;28;19921;-56
2021/10/11 02:43:12;;;;;;;;;;;18.00;56.70;;;;;;5003221;28;19917;-57
2021/10/11 02:45:37;;;;;;;;;;;18.10;56.80;;;;;;5007617;28;20011;-56
2021/10/11 02:48:05;;;;;;;;;;;18.10;56.70;;;;;;5007444;28;20405;-56
2021/10/11 02:50:31;;;;;;;;;;;18.10;56.70;;;;;;5014123;28;19921;-53
2021/10/11 02:52:56;;;;;;;;;;;18.00;56.60;;;;;;5012008;28;19972;-54
2021/10/11 02:55:22;;;;;;;;;;;18.00;56.60;;;;;;5013842;28;19927;-61
2021/10/11 02:57:47;;;;;;;;;;;18.00;56.60;;;;;;5007629;28;19918;-59
2021/10/11 03:00:13;;;;;;;;;;;18.10;56.70;;;;;;5005725;28;20074;-58
2021/10/11 03:02:38;;;;;;;;;;;18.00;56.60;;;;;;5016795;28;19924;-57
2021/10/11 03:05:04;;;;;;;;;;;18.10;56.60;;;;;;5013939;28;19936;-54
2021/10/11 03:07:29;;;;;;;;;;;18.10;56.60;;;;;;5009836;28;19952;-57
2021/10/11 03:09:55;;;;;;;;;;;18.10;56.60;;;;;;5005358;28;19936;-57
2021/10/11 03:12:20;;;;;;;;;;;18.00;56.50;;;;;;5003466;28;19918;-54
2021/10/11 03:14:46;;;;;;;;;;;18.00;56.60;;;;;;5004512;28;19976;-56
2021/10/11 03:17:11;;;;;;;;;;;18.00;56.50;;;;;;5012016;28;19932;-56
2021/10/11 03:19:36;;;;;;;;;;;18.00;56.60;;;;;;5002870;28;19975;-54
2021/10/11 03:22:02;;;;;;;;;;;18.00;56.60;;;;;;5008609;28;19937;-58
2021/10/11 03:24:28;;;;;;;;;;;18.00;56.50;;;;;;5012348;28;19922;-56
2021/10/11 03:26:53;;;;;;;;;;;18.00;56.50;;;;;;5001736;28;19917;-58
2021/10/11 03:29:18;;;;;;;;;;;18.10;56.50;;;;;;5007165;28;20428;-56
2021/10/11 03:31:44;;;;;;;;;;;18.00;56.50;;;;;;5016090;28;19917;-58
2021/10/11 03:34:11;;;;;;;;;;;18.00;56.60;;;;;;5005229;28;19917;-56
2021/10/11 03:36:37;;;;;;;;;;;18.00;56.60;;;;;;5003728;28;19944;-58
2021/10/11 03:39:03;;;;;;;;;;;18.00;56.60;;;;;;5005715;28;19983;-56
2021/10/11 03:41:28;;;;;;;;;;;18.00;56.60;;;;;;5004757;28;19925;-59
2021/10/11 03:43:53;;;;;;;;;;;18.00;56.60;;;;;;5009910;28;19918;-55
2021/10/11 03:46:19;;;;;;;;;;;18.00;56.50;;;;;;5011919;28;19952;-56
2021/10/11 03:48:44;;;;;;;;;;;17.90;56.60;;;;;;5009849;28;20398;-56
2021/10/11 03:51:10;;;;;;;;;;;18.00;56.50;;;;;;5002314;28;19921;-54
2021/10/11 03:53:36;;;;;;;;;;;17.90;56.50;;;;;;5001969;28;19917;-56
2021/10/11 03:56:01;;;;;;;;;;;18.00;56.60;;;;;;5001836;28;19929;-56
2021/10/11 03:58:27;;;;;;;;;;;18.00;56.50;;;;;;5013167;28;19917;-55
2021/10/11 04:00:52;;;;;;;;;;;18.00;56.50;;;;;;5001862;28;19952;-57
2021/10/11 04:03:18;;;;;;;;;;;17.90;56.50;;;;;;5009145;28;19924;-58
2021/10/11 04:05:43;;;;;;;;;;;18.00;56.50;;;;;;5007742;28;19925;-56
2021/10/11 04:10:37;;;;;;;;;;;18.00;56.50;;;;;;5006376;28;19925;-56
2021/10/11 04:13:05;;;;;;;;;;;17.90;56.50;;;;;;5009921;28;20335;-58
2021/10/11 04:15:30;;;;;;;;;;;18.00;56.50;;;;;;4993326;28;19918;-57
2021/10/11 04:17:56;;;;;;;;;;;17.90;56.50;;;;;;5005223;28;20357;-56
2021/10/11 04:20:21;;;;;;;;;;;17.90;56.50;;;;;;5015644;28;19929;-59
2021/10/11 04:22:47;;;;;;;;;;;17.90;56.50;;;;;;5010731;28;19917;-58
2021/10/11 04:25:12;;;;;;;;;;;17.90;56.50;;;;;;5016488;28;20307;-53
2021/10/11 04:27:39;;;;;;;;;;;17.90;56.40;;;;;;5005377;28;19925;-57
2021/10/11 04:30:05;;;;;;;;;;;17.90;56.50;;;;;;5012528;28;20025;-52
2021/10/11 04:32:31;;;;;;;;;;;17.90;56.60;;;;;;5013828;28;20017;-59
2021/10/11 04:34:56;;;;;;;;;;;17.90;56.50;;;;;;5009131;28;19921;-53
2021/10/11 04:37:21;;;;;;;;;;;17.90;56.50;;;;;;5006219;28;19943;-58
2021/10/11 04:39:47;;;;;;;;;;;17.90;56.50;;;;;;5012449;28;20438;-59
2021/10/11 04:42:13;;;;;;;;;;;17.90;56.50;;;;;;5005977;28;19925;-57
2021/10/11 04:44:38;;;;;;;;;;;17.90;56.50;;;;;;4992445;28;19921;-57
2021/10/11 04:47:04;;;;;;;;;;;17.90;56.50;;;;;;5007729;28;19917;-58
2021/10/11 04:49:29;;;;;;;;;;;17.90;56.60;;;;;;5007193;28;19918;-56
2021/10/11 04:51:54;;;;;;;;;;;17.90;56.80;;;;;;5009528;28;20402;-57
2021/10/11 04:54:20;;;;;;;;;;;17.90;56.90;;;;;;5013664;28;19926;-57
2021/10/11 04:56:45;;;;;;;;;;;17.90;57.00;;;;;;5005470;28;19976;-55
2021/10/11 04:59:11;;;;;;;;;;;17.90;57.20;;;;;;5005741;28;19921;-56
2021/10/11 05:01:36;;;;;;;;;;;17.90;57.40;;;;;;5022255;28;20299;-59
2021/10/11 05:04:02;;;;;;;;;;;17.90;57.60;;;;;;5012121;28;19926;-55
2021/10/11 05:06:27;;;;;;;;;;;17.90;57.70;;;;;;5006502;28;19993;-57
2021/10/11 05:08:53;;;;;;;;;;;17.90;57.90;;;;;;4991714;28;19917;-65
2021/10/11 05:11:18;;;;;;;;;;;17.90;58.10;;;;;;5012560;28;20641;-57
2021/10/11 05:13:44;;;;;;;;;;;17.80;58.70;;;;;;5007946;28;19929;-58
2021/10/11 05:16:13;;;;;;;;;;;17.80;59.20;;;;;;5007131;28;20453;-54
2021/10/11 05:18:39;;;;;;;;;;;17.80;59.60;;;;;;5012184;28;19921;-58
2021/10/11 05:21:05;;;;;;;;;;;17.80;59.50;;;;;;5004787;28;19968;-56
2021/10/11 05:23:31;;;;;;;;;;;17.80;59.50;;;;;;5002131;28;19918;-57
2021/10/11 05:25:56;;;;;;;;;;;17.80;59.60;;;;;;4997832;28;19955;-57
2021/10/11 05:28:22;;;;;;;;;;;17.80;60.80;;;;;;5018798;28;19914;-59
2021/10/11 05:30:49;;;;;;;;;;;17.80;60.20;;;;;;5014764;28;20346;-53
2021/10/11 05:33:15;;;;;;;;;;;17.80;60.10;;;;;;5002162;28;19924;-59
2021/10/11 05:35:40;;;;;;;;;;;17.80;60.00;;;;;;5010226;28;20290;-57
2021/10/11 05:38:05;;;;;;;;;;;17.80;59.90;;;;;;5017304;28;19913;-53
2021/10/11 05:40:31;;;;;;;;;;;17.80;59.80;;;;;;5014190;28;20004;-55
2021/10/11 05:42:57;;;;;;;;;;;17.90;59.60;;;;;;5017355;28;19917;-58
2021/10/11 05:45:22;;;;;;;;;;;17.90;59.60;;;;;;5019215;28;19918;-57
2021/10/11 05:47:48;;;;;;;;;;;17.80;59.50;;;;;;5006727;28;20354;-54
2021/10/11 05:50:13;;;;;;;;;;;17.80;59.40;;;;;;5017937;28;19983;-58
2021/10/11 05:52:39;;;;;;;;;;;17.80;59.50;;;;;;5006511;28;19914;-59
2021/10/11 05:55:05;;;;;;;;;;;17.80;60.00;;;;;;4999002;28;19978;-54
2021/10/11 05:57:32;;;;;;;;;;;17.80;59.90;;;;;;5023766;28;19948;-55
2021/10/11 05:59:58;;;;;;;;;;;17.80;59.90;;;;;;5022980;28;19948;-55
2021/10/11 06:02:23;;;;;;;;;;;17.90;59.90;;;;;;5003685;28;20375;-64
2021/10/11 06:04:49;;;;;;;;;;;17.90;59.90;;;;;;5019716;28;19917;-56
2021/10/11 06:07:14;;;;;;;;;;;17.90;60.00;;;;;;5014448;28;19914;-56
2021/10/11 06:09:41;;;;;;;;;;;17.80;60.00;;;;;;4991157;28;19923;-56
2021/10/11 06:12:07;;;;;;;;;;;17.90;60.40;;;;;;5013600;23;19969;-54
2021/10/11 06:14:32;;;;;;;;;;;17.90;60.60;;;;;;5041999;28;19948;-56
2021/10/11 06:16:58;;;;;;;;;;;17.90;61.20;;;;;;5041886;28;19944;-56
2021/10/11 06:19:23;;;;;;;;;;;17.90;62.00;;;;;;5042823;28;20004;-58
2021/10/11 06:21:49;;;;;;;;;;;17.90;62.20;;;;;;5042049;28;20761;-57
2021/10/11 06:24:14;;;;;;;;;;;17.90;62.10;;;;;;5041415;28;20023;-58
2021/10/11 06:26:40;;;;;;;;;;;17.90;61.70;;;;;;5040776;28;20468;-54
2021/10/11 06:29:06;;;;;;;;;;;17.90;62.10;;;;;;5043558;28;19916;-55
2021/10/11 06:31:31;;;;;;;;;;;17.90;62.20;;;;;;5043170;28;19936;-57
2021/10/11 06:33:57;;;;;;;;;;;17.90;62.50;;;;;;5044167;28;19913;-58
2021/10/11 06:36:22;;;;;;;;;;;17.90;62.70;;;;;;5043803;28;20259;-56
2021/10/11 06:38:48;;;;;;;;;;;17.90;63.60;;;;;;5042575;28;19913;-56
2021/10/11 06:41:13;;;;;;;;;;;17.90;64.20;;;;;;5043242;28;20010;-58
2021/10/11 06:43:57;;;;;;;;;;;17.90;65.20;;;;;;5041363;28;19927;-57
2021/10/11 06:46:23;;;;;;;;;;;17.90;65.20;;;;;;5041882;28;19928;-53
2021/10/11 06:48:49;;;;;;;;;;;17.90;65.40;;;;;;5042822;28;19913;-56
2021/10/11 06:51:14;;;;;;;;;;;17.90;65.40;;;;;;5043165;28;20031;-57
2021/10/11 06:53:40;;;;;;;;;;;17.90;65.00;;;;;;5043661;28;19912;-56
2021/10/11 06:56:05;;;;;;;;;;;17.90;64.20;;;;;;5041334;28;19917;-58
2021/10/11 06:58:30;;;;;;;;;;;17.90;63.50;;;;;;5042689;28;19913;-56
2021/10/11 07:00:56;;;;;;;;;;;17.90;63.00;;;;;;5042866;28;19913;-55
2021/10/11 07:03:25;;;;;;;;;;;17.90;63.20;;;;;;5043120;28;19917;-57
2021/10/11 07:06:01;;;;;;;;;;;17.90;63.00;;;;;;5040866;28;20099;-57
2021/10/11 07:08:26;;;;;;;;;;;17.90;62.60;;;;;;5042502;28;19936;-57
2021/10/11 07:10:54;;;;;;;;;;;17.90;62.30;;;;;;5043074;28;19955;-57
2021/10/11 07:13:20;;;;;;;;;;;17.90;61.90;;;;;;5042756;28;20496;-56
2021/10/11 07:15:46;;;;;;;;;;;17.90;61.70;;;;;;5041370;28;19913;-56
2021/10/11 07:18:11;;;;;;;;;;;17.90;61.50;;;;;;5042036;28;19912;-54
2021/10/11 07:20:41;;;;;;;;;;;17.90;61.40;;;;;;5042140;28;20341;-56
2021/10/11 07:23:06;;;;;;;;;;;17.90;61.20;;;;;;5042603;28;20107;-54
2021/10/11 07:25:32;;;;;;;;;;;17.90;61.10;;;;;;5041073;28;20538;-57
2021/10/11 07:27:59;;;;;;;;;;;17.90;61.20;;;;;;5040722;28;19917;-57
2021/10/11 07:30:24;;;;;;;;;;;17.90;61.90;;;;;;5042063;28;19920;-57
2021/10/11 07:32:50;;;;;;;;;;;17.90;62.60;;;;;;5042188;28;19913;-57
2021/10/11 07:35:15;;;;;;;;;;;17.90;62.50;;;;;;5042447;28;20259;-56
2021/10/11 07:37:41;;;;;;;;;;;17.90;62.40;;;;;;5041972;28;19917;-57
2021/10/11 07:40:06;;;;;;;;;;;18.00;62.10;;;;;;5041508;28;20440;-57
2021/10/11 07:42:32;;;;;;;;;;;17.90;61.40;;;;;;5041376;28;19928;-57
2021/10/11 07:44:57;;;;;;;;;;;18.00;60.90;;;;;;5041978;28;19932;-56
2021/10/11 07:47:23;;;;;;;;;;;18.00;60.20;;;;;;5042104;28;19912;-56
2021/10/11 07:49:48;;;;;;;;;;;18.00;59.80;;;;;;5041385;28;19913;-56
2021/10/11 07:52:14;;;;;;;;;;;17.90;58.60;;;;;;5041180;28;19921;-57
2021/10/11 07:54:39;;;;;;;;;;;17.90;58.30;;;;;;5040773;28;19919;-56
2021/10/11 07:57:05;;;;;;;;;;;17.90;58.10;;;;;;5041396;28;19927;-56
2021/10/11 07:59:30;;;;;;;;;;;17.90;58.20;;;;;;5041516;28;20366;-56
2021/10/11 08:01:56;;;;;;;;;;;17.90;58.20;;;;;;5041788;28;19921;-57
2021/10/11 08:04:21;;;;;;;;;;;17.90;58.20;;;;;;5041121;28;19931;-56
2021/10/11 08:06:47;;;;;;;;;;;17.90;58.30;;;;;;5041923;28;20307;-54
2021/10/11 08:09:12;;;;;;;;;;;17.90;58.30;;;;;;5040898;28;19947;-57
2021/10/11 08:11:42;;;;;;;;;;;17.90;58.30;;;;;;5041292;28;19917;-56
2021/10/11 08:14:07;;;;;;;;;;;17.90;58.30;;;;;;5041002;28;19925;-56
2021/10/11 08:16:33;;;;;;;;;;;17.90;58.30;;;;;;5040204;28;19920;-54
2021/10/11 08:18:58;;;;;;;;;;;17.90;58.40;;;;;;5040948;28;19917;-58
2021/10/11 08:21:24;;;;;;;;;;;17.90;58.40;;;;;;5041814;28;20161;-54
2021/10/11 08:23:53;;;;;;;;;;;17.90;58.40;;;;;;5040031;28;19952;-54
2021/10/11 08:26:19;;;;;;;;;;;17.90;58.50;;;;;;5040658;28;19923;-57
2021/10/11 08:28:44;;;;;;;;;;;17.90;58.50;;;;;;5039273;28;19921;-58
2021/10/11 08:31:11;;;;;;;;;;;17.90;58.60;;;;;;5040699;28;19924;-57
2021/10/11 08:33:36;;;;;;;;;;;17.90;58.60;;;;;;5041458;28;20309;-55
2021/10/11 08:36:02;;;;;;;;;;;17.90;58.60;;;;;;5040797;28;19913;-57
2021/10/11 08:38:27;;;;;;;;;;;17.90;58.60;;;;;;5040965;28;20294;-55
2021/10/11 08:40:53;;;;;;;;;;;17.90;58.60;;;;;;5041099;28;19917;-57
2021/10/11 08:43:18;;;;;;;;;;;17.90;58.60;;;;;;5041331;28;19913;-57
2021/10/11 08:45:47;;;;;;;;;;;17.90;58.70;;;;;;5041173;28;22514;-57
2021/10/11 08:48:13;;;;;;;;;;;17.90;58.80;;;;;;5022835;28;19913;-56
2021/10/11 08:50:38;;;;;;;;;;;17.80;58.80;;;;;;5040744;28;19920;-57
2021/10/11 08:53:04;;;;;;;;;;;17.90;58.90;;;;;;5040752;28;19913;-55
2021/10/11 08:55:31;;;;;;;;;;;17.90;58.90;;;;;;5040347;28;22261;-55
2021/10/11 08:58:01;;;;;;;;;;;17.90;59.00;;;;;;5030661;28;19913;-56
2021/10/11 09:00:26;;;;;;;;;;;17.90;59.00;;;;;;5046161;28;19912;-56
2021/10/11 09:02:52;;;;;;;;;;;17.80;59.00;;;;;;5041283;28;19913;-58
2021/10/11 09:05:22;;;;;;;;;;;17.80;59.00;;;;;;5032510;28;19928;-57
2021/10/11 09:07:47;;;;;;;;;;;17.80;59.80;;;;;;5044340;28;21272;-56
2021/10/11 09:10:13;;;;;;;;;;;17.80;59.20;;;;;;5042919;28;20390;-53
2021/10/11 09:12:38;;;;;;;;;;;17.80;59.20;;;;;;5043732;28;19950;-57
2021/10/11 09:15:05;;;;;;;;;;;17.80;59.20;;;;;;5044655;28;20362;-57
2021/10/11 09:17:34;;;;;;;;;;;17.90;59.20;;;;;;5044008;28;19983;-57
2021/10/11 09:20:15;;;;;;;;;;;17.80;59.20;;;;;;5042982;28;19912;-57
2021/10/11 09:22:41;;;;;;;;;;;17.80;59.30;;;;;;5044428;28;19916;-57
2021/10/11 09:25:07;;;;;;;;;;;17.80;59.30;;;;;;5044046;28;19921;-54
2021/10/11 09:27:51;;;;;;;;;;;17.80;59.30;;;;;;5043545;28;20435;-56
2021/10/11 09:30:27;;;;;;;;;;;17.80;59.30;;;;;;5044464;28;19917;-57
2021/10/11 09:33:26;;;;;;;;;;;17.80;59.40;;;;;;5044698;28;19920;-57
2021/10/11 09:35:51;;;;;;;;;;;17.80;59.40;;;;;;5010538;28;20481;-56
2021/10/11 09:38:17;;;;;;;;;;;17.80;59.40;;;;;;5044312;28;20030;-56
2021/10/11 09:40:42;;;;;;;;;;;17.80;59.50;;;;;;5044213;28;20330;-56
2021/10/11 09:43:12;;;;;;;;;;;17.80;59.40;;;;;;5043729;28;19967;-57
2021/10/11 09:45:38;;;;;;;;;;;17.80;59.50;;;;;;5042434;28;19931;-54
2021/10/11 09:48:07;;;;;;;;;;;17.80;59.50;;;;;;5043287;28;19913;-56
2021/10/11 09:50:32;;;;;;;;;;;17.80;59.50;;;;;;5042487;28;19948;-56
2021/10/11 09:52:58;;;;;;;;;;;17.80;59.50;;;;;;5043911;28;19961;-55
2021/10/11 09:55:23;;;;;;;;;;;17.80;59.60;;;;;;5041738;28;20657;-55
2021/10/11 09:57:48;;;;;;;;;;;17.80;59.60;;;;;;5042729;28;19925;-56
2021/10/11 10:00:14;;;;;;;;;;;17.80;60.20;;;;;;5042234;28;19924;-55
2021/10/11 10:02:41;;;;;;;;;;;17.80;59.60;;;;;;5043427;28;19999;-58
2021/10/11 10:05:10;;;;;;;;;;;17.80;59.60;;;;;;5042197;28;19971;-57
2021/10/11 10:07:35;;;;;;;;;;;17.80;59.70;;;;;;5041636;28;19913;-55
2021/10/11 10:10:05;;;;;;;;;;;17.80;59.70;;;;;;5042259;28;20305;-55
2021/10/11 10:12:32;;;;;;;;;;;17.80;59.70;;;;;;5037843;28;19935;-57
2021/10/11 10:14:58;;;;;;;;;;;17.80;59.70;;;;;;5043529;28;19920;-59
2021/10/11 10:17:28;;;;;;;;;;;17.80;59.70;;;;;;5040874;28;19944;-57
2021/10/11 10:20:02;;;;;;;;;;;17.80;59.80;;;;;;5042582;28;19913;-58
2021/10/11 10:22:27;;;;;;;;;;;17.80;59.80;;;;;;5043073;28;20411;-58
2021/10/11 10:25:02;;;;;;;;;;;17.80;59.80;;;;;;5041058;28;19927;-58
2021/10/11 10:27:32;;;;;;;;;;;17.80;59.90;;;;;;5041217;28;19982;-58
2021/10/11 10:29:58;;;;;;;;;;;17.80;59.80;;;;;;5042980;28;20015;-58
2021/10/11 10:32:24;;;;;;;;;;;17.80;59.80;;;;;;5032179;28;19948;-58
2021/10/11 10:34:59;;;;;;;;;;;17.80;59.90;;;;;;5042885;28;19921;-56
2021/10/11 10:37:32;;;;;;;;;;;17.80;59.90;;;;;;5041485;28;19924;-58
2021/10/11 10:40:05;;;;;;;;;;;17.80;59.90;;;;;;5041560;28;20508;-55
2021/10/11 10:42:30;;;;;;;;;;;17.80;59.90;;;;;;5040348;28;19919;-58
2021/10/11 10:44:56;;;;;;;;;;;17.80;59.90;;;;;;5043377;28;19917;-56
2021/10/11 10:47:31;;;;;;;;;;;17.80;59.90;;;;;;5042467;28;19913;-57
2021/10/11 10:49:56;;;;;;;;;;;17.80;59.90;;;;;;5040806;28;20448;-58
2021/10/11 10:52:22;;;;;;;;;;;17.80;60.00;;;;;;5042696;28;19920;-57
2021/10/11 10:54:49;;;;;;;;;;;17.80;60.00;;;;;;5041603;28;20321;-58
2021/10/11 10:57:22;;;;;;;;;;;17.70;59.90;;;;;;5042099;28;20016;-57
2021/10/11 11:00:02;;;;;;;;;;;17.80;60.00;;;;;;5042978;28;19917;-58
2021/10/11 11:02:28;;;;;;;;;;;17.80;60.10;;;;;;5031356;28;19940;-55
2021/10/11 11:04:58;;;;;;;;;;;17.80;60.00;;;;;;5042875;28;19917;-56
2021/10/11 11:07:34;;;;;;;;;;;17.80;60.00;;;;;;5042207;28;19917;-56
2021/10/11 11:10:00;;;;;;;;;;;17.80;60.10;;;;;;5040954;28;20390;-60
2021/10/11 11:12:28;;;;;;;;;;;17.80;60.10;;;;;;5041644;28;20541;-58
2021/10/11 11:14:54;;;;;;;;;;;17.80;60.10;;;;;;5042068;28;19921;-57
2021/10/11 11:17:26;;;;;;;;;;;17.80;60.10;;;;;;5041738;28;19921;-57
2021/10/11 11:19:51;;;;;;;;;;;17.80;60.10;;;;;;5040745;28;19913;-58
2021/10/11 11:22:25;;;;;;;;;;;17.70;60.00;;;;;;5041705;28;19913;-56
2021/10/11 11:24:51;;;;;;;;;;;17.80;60.10;;;;;;5041377;28;19932;-58
2021/10/11 11:27:29;;;;;;;;;;;17.80;60.10;;;;;;5035196;28;19921;-56
2021/10/11 11:29:59;;;;;;;;;;;17.70;60.20;;;;;;5035720;28;19921;-55
2021/10/11 11:32:24;;;;;;;;;;;17.70;60.10;;;;;;5039379;28;19947;-59
2021/10/11 11:34:49;;;;;;;;;;;17.80;60.20;;;;;;5041848;28;20354;-57
2021/10/11 11:37:15;;;;;;;;;;;17.80;60.20;;;;;;5041672;28;19939;-56
2021/10/11 11:39:40;;;;;;;;;;;17.70;60.20;;;;;;5041554;28;19923;-57
2021/10/11 11:42:07;;;;;;;;;;;17.80;60.20;;;;;;5041938;28;20263;-57
2021/10/11 11:44:32;;;;;;;;;;;17.80;60.20;;;;;;5041795;28;20374;-57
2021/10/11 11:47:01;;;;;;;;;;;17.80;60.20;;;;;;5042264;28;19974;-57
2021/10/11 11:49:27;;;;;;;;;;;17.70;60.20;;;;;;5013590;28;19913;-58
2021/10/11 11:52:22;;;;;;;;;;;17.70;60.30;;;;;;5041771;28;19923;-58
2021/10/11 11:54:53;;;;;;;;;;;17.70;60.20;;;;;;5027510;28;20590;-57
2021/10/11 11:57:19;;;;;;;;;;;17.80;60.30;;;;;;5041280;28;19920;-58
2021/10/11 11:59:45;;;;;;;;;;;17.80;60.30;;;;;;5037414;28;19920;-57
2021/10/11 12:02:10;;;;;;;;;;;17.80;60.30;;;;;;5040233;28;20325;-57
2021/10/11 12:04:36;;;;;;;;;;;17.70;60.30;;;;;;5040108;28;19925;-57
2021/10/11 12:07:02;;;;;;;;;;;17.80;60.40;;;;;;5039765;28;20536;-56
2021/10/11 12:09:27;;;;;;;;;;;17.70;60.30;;;;;;5040464;28;19920;-58
2021/10/11 12:12:03;;;;;;;;;;;17.80;60.40;;;;;;5041784;28;19913;-57
2021/10/11 12:14:28;;;;;;;;;;;17.80;60.40;;;;;;5030043;28;20644;-57
2021/10/11 12:17:14;;;;;;;;;;;17.80;60.50;;;;;;5040182;28;20012;-57
2021/10/11 12:19:39;;;;;;;;;;;17.70;60.40;;;;;;5040382;28;20012;-57
2021/10/11 12:22:05;;;;;;;;;;;17.70;60.60;;;;;;5041196;28;20289;-55
2021/10/11 12:24:34;;;;;;;;;;;17.70;60.50;;;;;;5040932;28;19920;-59
2021/10/11 12:27:00;;;;;;;;;;;17.70;60.60;;;;;;5041445;28;19944;-58
2021/10/11 12:29:27;;;;;;;;;;;17.80;60.60;;;;;;5041214;28;19920;-56
2021/10/11 12:32:04;;;;;;;;;;;17.70;60.60;;;;;;5041548;28;19920;-54
2021/10/11 12:34:33;;;;;;;;;;;17.80;60.60;;;;;;5040162;28;20201;-58
2021/10/11 12:36:58;;;;;;;;;;;17.70;60.60;;;;;;5029803;28;19913;-58
2021/10/11 12:39:34;;;;;;;;;;;17.70;60.60;;;;;;5039971;28;19919;-58
2021/10/11 12:41:59;;;;;;;;;;;17.70;60.70;;;;;;5043998;28;19982;-54
2021/10/11 12:44:32;;;;;;;;;;;17.70;60.60;;;;;;5044752;28;19913;-58
2021/10/11 12:46:57;;;;;;;;;;;17.70;60.60;;;;;;5043885;28;20007;-58
2021/10/11 12:49:30;;;;;;;;;;;17.70;60.70;;;;;;5044762;28;19917;-55
2021/10/11 12:51:55;;;;;;;;;;;17.70;60.70;;;;;;5043067;28;20024;-56
2021/10/11 12:54:26;;;;;;;;;;;17.70;60.80;;;;;;5044825;28;19925;-56
2021/10/11 12:56:51;;;;;;;;;;;17.70;60.70;;;;;;5044670;28;19920;-58
2021/10/11 12:59:17;;;;;;;;;;;17.70;60.70;;;;;;5044641;28;19976;-56
2021/10/11 13:01:43;;;;;;;;;;;17.70;60.70;;;;;;5045001;28;19913;-57
2021/10/11 13:04:08;;;;;;;;;;;17.70;60.80;;;;;;5044290;28;19913;-58
2021/10/11 13:06:34;;;;;;;;;;;17.70;60.80;;;;;;5043954;28;19917;-57
2021/10/11 13:09:00;;;;;;;;;;;17.70;60.80;;;;;;5044554;28;20393;-57
2021/10/11 13:11:25;;;;;;;;;;;17.70;60.80;;;;;;5043489;28;19920;-58
2021/10/11 13:13:51;;;;;;;;;;;17.70;60.80;;;;;;5044062;28;19929;-57
2021/10/11 13:16:16;;;;;;;;;;;17.70;60.90;;;;;;5044146;28;19966;-57
2021/10/11 13:18:42;;;;;;;;;;;17.70;60.90;;;;;;5042199;28;19913;-58
2021/10/11 13:21:08;;;;;;;;;;;17.70;61.00;;;;;;5043839;28;19920;-57
2021/10/11 13:23:33;;;;;;;;;;;17.70;61.00;;;;;;5044028;28;20446;-58
2021/10/11 13:25:58;;;;;;;;;;;17.70;60.90;;;;;;5043941;28;20421;-58
2021/10/11 13:28:24;;;;;;;;;;;17.70;60.90;;;;;;5044066;28;19912;-56
2021/10/11 14:27:46;;;;;;;;;;;17.70;61.50;;;;;;5041510;28;20055;-57
2021/10/11 14:33:22;;;;;;;;;;;17.70;61.50;;;;;;5043152;28;20131;-57
2021/10/11 16:00:22;;;;;;;;;;;17.70;61.60;;;;;;5040919;28;19921;-55
2021/10/11 16:02:50;;;;;;;;;;;17.70;61.50;;;;;;5040877;28;19921;-57
2021/10/11 16:05:16;;;;;;;;;;;17.70;61.70;;;;;;5039539;28;20518;-57
2021/10/11 16:07:42;;;;;;;;;;;17.80;61.70;;;;;;5033382;28;20027;-57
2021/10/11 16:10:08;;;;;;;;;;;17.70;61.70;;;;;;5033283;28;19921;-57
2021/10/11 16:12:33;;;;;;;;;;;17.70;61.60;;;;;;5028770;28;19963;-57
2021/10/11 16:14:59;;;;;;;;;;;17.70;61.70;;;;;;5036905;28;20286;-57
2021/10/11 16:17:24;;;;;;;;;;;17.70;61.70;;;;;;5035636;28;19917;-57
2021/10/11 16:19:50;;;;;;;;;;;17.70;61.70;;;;;;5031233;28;20491;-55
2021/10/11 16:22:15;;;;;;;;;;;17.70;61.70;;;;;;5033485;28;19924;-58
2021/10/11 16:24:41;;;;;;;;;;;17.80;61.90;;;;;;5032967;28;19917;-56
2021/10/11 16:27:06;;;;;;;;;;;17.80;62.10;;;;;;5033943;28;20018;-58
2021/10/11 16:29:32;;;;;;;;;;;17.70;62.20;;;;;;5030443;28;19921;-57
2021/10/11 16:31:57;;;;;;;;;;;17.70;62.30;;;;;;5035779;28;19917;-57
2021/10/11 16:34:25;;;;;;;;;;;17.70;62.40;;;;;;5036393;28;19929;-57
2021/10/11 16:36:50;;;;;;;;;;;17.70;62.40;;;;;;5032888;28;19917;-57
2021/10/11 16:39:16;;;;;;;;;;;17.70;62.40;;;;;;5034865;28;19917;-57